sensor_id;sensor_type;location;lat;lon;timestamp;P1;durP1;ratioP1;P2;durP2;ratioP2
43150;SDS011;28755;51.478;5.702;2023-03-21T00:00:36;25.02;;;13.75;;
43150;SDS011;28755;51.478;5.702;2023-03-21T00:03:03;27.92;;;13.13;;
43150;SDS011;28755;51.478;5.702;2023-03-21T00:05:29;26.10;;;12.55;;
43150;SDS011;28755;51.478;5.702;2023-03-21T00:07:54;25.35;;;13.40;;
43150;SDS011;28755;51.478;5.702;2023-03-21T00:10:20;31.67;;;13.88;;
43150;SDS011;28755;51.478;5.702;2023-03-21T00:12:45;27.35;;;13.23;;
43150;SDS011;28755;51.478;5.702;2023-03-21T00:15:14;27.48;;;12.48;;
43150;SDS011;28755;51.478;5.702;2023-03-21T00:17:42;27.45;;;12.20;;
43150;SDS011;28755;51.478;5.702;2023-03-21T00:20:09;28.27;;;12.48;;
43150;SDS011;28755;51.478;5.702;2023-03-21T00:22:38;25.95;;;12.82;;
43150;SDS011;28755;51.478;5.702;2023-03-21T00:25:05;27.75;;;13.07;;
43150;SDS011;28755;51.478;5.702;2023-03-21T00:27:32;25.20;;;12.10;;
43150;SDS011;28755;51.478;5.702;2023-03-21T00:29:58;28.08;;;12.45;;
43150;SDS011;28755;51.478;5.702;2023-03-21T00:32:23;22.65;;;12.27;;
43150;SDS011;28755;51.478;5.702;2023-03-21T00:34:49;27.40;;;12.35;;
43150;SDS011;28755;51.478;5.702;2023-03-21T00:37:15;22.23;;;11.95;;
43150;SDS011;28755;51.478;5.702;2023-03-21T00:39:42;22.30;;;11.48;;
43150;SDS011;28755;51.478;5.702;2023-03-21T00:42:12;23.73;;;11.43;;
43150;SDS011;28755;51.478;5.702;2023-03-21T00:44:37;19.88;;;11.55;;
43150;SDS011;28755;51.478;5.702;2023-03-21T00:47:04;22.27;;;11.80;;
43150;SDS011;28755;51.478;5.702;2023-03-21T00:49:30;22.92;;;11.25;;
43150;SDS011;28755;51.478;5.702;2023-03-21T00:51:59;19.52;;;11.10;;
43150;SDS011;28755;51.478;5.702;2023-03-21T00:54:26;18.52;;;11.70;;
43150;SDS011;28755;51.478;5.702;2023-03-21T00:56:51;26.42;;;12.20;;
43150;SDS011;28755;51.478;5.702;2023-03-21T00:59:17;20.83;;;11.20;;
43150;SDS011;28755;51.478;5.702;2023-03-21T01:01:43;24.50;;;11.30;;
43150;SDS011;28755;51.478;5.702;2023-03-21T01:04:10;19.25;;;10.98;;
43150;SDS011;28755;51.478;5.702;2023-03-21T01:06:39;21.05;;;11.13;;
43150;SDS011;28755;51.478;5.702;2023-03-21T01:09:08;20.02;;;10.45;;
43150;SDS011;28755;51.478;5.702;2023-03-21T01:11:42;24.73;;;10.50;;
43150;SDS011;28755;51.478;5.702;2023-03-21T01:14:09;19.70;;;10.43;;
43150;SDS011;28755;51.478;5.702;2023-03-21T01:16:35;22.23;;;10.63;;
43150;SDS011;28755;51.478;5.702;2023-03-21T01:19:02;24.20;;;10.43;;
43150;SDS011;28755;51.478;5.702;2023-03-21T01:21:28;21.08;;;10.88;;
43150;SDS011;28755;51.478;5.702;2023-03-21T01:23:54;21.85;;;10.57;;
43150;SDS011;28755;51.478;5.702;2023-03-21T01:26:19;21.58;;;10.05;;
43150;SDS011;28755;51.478;5.702;2023-03-21T01:28:45;28.13;;;11.02;;
43150;SDS011;28755;51.478;5.702;2023-03-21T01:31:12;21.10;;;10.65;;
43150;SDS011;28755;51.478;5.702;2023-03-21T01:33:39;21.65;;;10.38;;
43150;SDS011;28755;51.478;5.702;2023-03-21T01:36:05;19.42;;;10.23;;
43150;SDS011;28755;51.478;5.702;2023-03-21T01:38:31;18.50;;;10.52;;
43150;SDS011;28755;51.478;5.702;2023-03-21T01:40:58;19.42;;;9.90;;
43150;SDS011;28755;51.478;5.702;2023-03-21T01:43:27;19.80;;;9.85;;
43150;SDS011;28755;51.478;5.702;2023-03-21T01:49:15;21.20;;;10.02;;
43150;SDS011;28755;51.478;5.702;2023-03-21T01:51:56;22.08;;;9.55;;
43150;SDS011;28755;51.478;5.702;2023-03-21T01:54:26;22.55;;;9.65;;
43150;SDS011;28755;51.478;5.702;2023-03-21T01:56:56;20.08;;;9.55;;
43150;SDS011;28755;51.478;5.702;2023-03-21T01:59:27;20.88;;;9.50;;
43150;SDS011;28755;51.478;5.702;2023-03-21T02:01:57;15.52;;;9.23;;
43150;SDS011;28755;51.478;5.702;2023-03-21T02:04:25;23.92;;;9.45;;
43150;SDS011;28755;51.478;5.702;2023-03-21T02:06:59;25.50;;;10.25;;
43150;SDS011;28755;51.478;5.702;2023-03-21T02:09:32;18.42;;;10.13;;
43150;SDS011;28755;51.478;5.702;2023-03-21T02:12:00;19.17;;;9.48;;
43150;SDS011;28755;51.478;5.702;2023-03-21T02:14:26;20.30;;;10.57;;
43150;SDS011;28755;51.478;5.702;2023-03-21T02:17:00;17.70;;;9.63;;
43150;SDS011;28755;51.478;5.702;2023-03-21T02:19:45;21.95;;;9.82;;
43150;SDS011;28755;51.478;5.702;2023-03-21T02:22:24;22.02;;;10.13;;
43150;SDS011;28755;51.478;5.702;2023-03-21T02:27:54;22.05;;;9.68;;
43150;SDS011;28755;51.478;5.702;2023-03-21T02:30:34;19.13;;;9.27;;
43150;SDS011;28755;51.478;5.702;2023-03-21T02:38:38;19.02;;;9.73;;
43150;SDS011;28755;51.478;5.702;2023-03-21T02:41:35;24.98;;;9.98;;
43150;SDS011;28755;51.478;5.702;2023-03-21T02:46:45;22.65;;;9.95;;
43150;SDS011;28755;51.478;5.702;2023-03-21T02:49:25;24.75;;;10.50;;
43150;SDS011;28755;51.478;5.702;2023-03-21T02:52:07;19.95;;;9.65;;
43150;SDS011;28755;51.478;5.702;2023-03-21T02:54:36;20.30;;;10.57;;
43150;SDS011;28755;51.478;5.702;2023-03-21T02:57:02;25.70;;;9.95;;
43150;SDS011;28755;51.478;5.702;2023-03-21T02:59:29;19.65;;;9.63;;
43150;SDS011;28755;51.478;5.702;2023-03-21T03:01:55;21.65;;;9.70;;
43150;SDS011;28755;51.478;5.702;2023-03-21T03:04:25;21.05;;;10.27;;
43150;SDS011;28755;51.478;5.702;2023-03-21T03:12:06;22.33;;;9.75;;
43150;SDS011;28755;51.478;5.702;2023-03-21T03:20:23;28.45;;;10.77;;
43150;SDS011;28755;51.478;5.702;2023-03-21T03:23:13;23.30;;;10.38;;
43150;SDS011;28755;51.478;5.702;2023-03-21T03:25:50;22.02;;;9.38;;
43150;SDS011;28755;51.478;5.702;2023-03-21T03:28:17;32.25;;;10.68;;
43150;SDS011;28755;51.478;5.702;2023-03-21T03:30:46;31.92;;;11.35;;
43150;SDS011;28755;51.478;5.702;2023-03-21T03:33:14;21.83;;;11.35;;
43150;SDS011;28755;51.478;5.702;2023-03-21T03:35:42;22.60;;;11.18;;
43150;SDS011;28755;51.478;5.702;2023-03-21T03:38:09;22.52;;;10.52;;
43150;SDS011;28755;51.478;5.702;2023-03-21T03:40:39;26.60;;;10.40;;
43150;SDS011;28755;51.478;5.702;2023-03-21T03:43:09;23.38;;;10.23;;
43150;SDS011;28755;51.478;5.702;2023-03-21T03:45:43;23.80;;;10.35;;
43150;SDS011;28755;51.478;5.702;2023-03-21T03:48:21;23.05;;;10.25;;
43150;SDS011;28755;51.478;5.702;2023-03-21T03:50:55;24.70;;;11.15;;
43150;SDS011;28755;51.478;5.702;2023-03-21T03:53:33;20.20;;;11.02;;
43150;SDS011;28755;51.478;5.702;2023-03-21T03:56:05;24.92;;;11.10;;
43150;SDS011;28755;51.478;5.702;2023-03-21T03:58:33;19.00;;;11.25;;
43150;SDS011;28755;51.478;5.702;2023-03-21T04:01:02;24.55;;;11.20;;
43150;SDS011;28755;51.478;5.702;2023-03-21T04:03:27;22.08;;;11.13;;
43150;SDS011;28755;51.478;5.702;2023-03-21T04:05:53;23.92;;;11.88;;
43150;SDS011;28755;51.478;5.702;2023-03-21T04:08:19;24.95;;;12.10;;
43150;SDS011;28755;51.478;5.702;2023-03-21T04:10:47;24.50;;;11.75;;
43150;SDS011;28755;51.478;5.702;2023-03-21T04:13:13;28.73;;;12.35;;
43150;SDS011;28755;51.478;5.702;2023-03-21T04:15:39;27.33;;;12.25;;
43150;SDS011;28755;51.478;5.702;2023-03-21T04:18:04;29.58;;;12.98;;
43150;SDS011;28755;51.478;5.702;2023-03-21T04:20:30;25.92;;;12.15;;
43150;SDS011;28755;51.478;5.702;2023-03-21T04:22:56;25.15;;;12.68;;
43150;SDS011;28755;51.478;5.702;2023-03-21T04:25:22;25.13;;;12.15;;
43150;SDS011;28755;51.478;5.702;2023-03-21T04:27:47;24.98;;;10.98;;
43150;SDS011;28755;51.478;5.702;2023-03-21T04:30:13;26.45;;;10.90;;
43150;SDS011;28755;51.478;5.702;2023-03-21T04:32:39;26.73;;;11.25;;
43150;SDS011;28755;51.478;5.702;2023-03-21T04:35:05;20.33;;;10.93;;
43150;SDS011;28755;51.478;5.702;2023-03-21T04:37:34;17.30;;;10.23;;
43150;SDS011;28755;51.478;5.702;2023-03-21T04:40:01;22.15;;;10.90;;
43150;SDS011;28755;51.478;5.702;2023-03-21T04:42:30;29.10;;;12.73;;
43150;SDS011;28755;51.478;5.702;2023-03-21T04:44:57;24.40;;;11.50;;
43150;SDS011;28755;51.478;5.702;2023-03-21T04:47:22;22.42;;;10.98;;
43150;SDS011;28755;51.478;5.702;2023-03-21T04:49:48;30.63;;;11.70;;
43150;SDS011;28755;51.478;5.702;2023-03-21T04:52:14;25.65;;;11.25;;
43150;SDS011;28755;51.478;5.702;2023-03-21T04:54:39;25.90;;;11.13;;
43150;SDS011;28755;51.478;5.702;2023-03-21T04:57:05;28.30;;;11.07;;
43150;SDS011;28755;51.478;5.702;2023-03-21T04:59:31;26.52;;;11.30;;
43150;SDS011;28755;51.478;5.702;2023-03-21T05:01:58;26.45;;;10.85;;
43150;SDS011;28755;51.478;5.702;2023-03-21T05:04:24;28.00;;;11.10;;
43150;SDS011;28755;51.478;5.702;2023-03-21T05:06:51;25.40;;;11.75;;
43150;SDS011;28755;51.478;5.702;2023-03-21T05:09:17;23.67;;;11.18;;
43150;SDS011;28755;51.478;5.702;2023-03-21T05:11:43;29.60;;;11.02;;
43150;SDS011;28755;51.478;5.702;2023-03-21T05:14:10;29.83;;;11.45;;
43150;SDS011;28755;51.478;5.702;2023-03-21T05:16:38;26.85;;;12.15;;
43150;SDS011;28755;51.478;5.702;2023-03-21T05:19:09;23.38;;;10.85;;
43150;SDS011;28755;51.478;5.702;2023-03-21T05:21:38;26.52;;;10.95;;
43150;SDS011;28755;51.478;5.702;2023-03-21T05:24:08;25.67;;;11.05;;
43150;SDS011;28755;51.478;5.702;2023-03-21T05:26:38;27.55;;;10.48;;
43150;SDS011;28755;51.478;5.702;2023-03-21T05:29:04;24.88;;;10.27;;
43150;SDS011;28755;51.478;5.702;2023-03-21T05:31:31;18.27;;;9.82;;
43150;SDS011;28755;51.478;5.702;2023-03-21T05:33:56;21.80;;;9.45;;
43150;SDS011;28755;51.478;5.702;2023-03-21T05:36:22;22.42;;;9.77;;
43150;SDS011;28755;51.478;5.702;2023-03-21T05:38:48;22.05;;;9.27;;
43150;SDS011;28755;51.478;5.702;2023-03-21T05:41:15;23.00;;;9.93;;
43150;SDS011;28755;51.478;5.702;2023-03-21T05:43:42;23.10;;;10.13;;
43150;SDS011;28755;51.478;5.702;2023-03-21T05:46:07;24.55;;;9.65;;
43150;SDS011;28755;51.478;5.702;2023-03-21T05:48:34;25.70;;;9.73;;
43150;SDS011;28755;51.478;5.702;2023-03-21T05:51:01;24.20;;;9.45;;
43150;SDS011;28755;51.478;5.702;2023-03-21T05:53:27;25.27;;;8.68;;
43150;SDS011;28755;51.478;5.702;2023-03-21T05:55:53;18.20;;;8.65;;
43150;SDS011;28755;51.478;5.702;2023-03-21T05:58:18;19.25;;;8.95;;
43150;SDS011;28755;51.478;5.702;2023-03-21T06:00:44;20.65;;;8.30;;
43150;SDS011;28755;51.478;5.702;2023-03-21T06:03:10;20.25;;;9.15;;
43150;SDS011;28755;51.478;5.702;2023-03-21T06:05:35;19.23;;;8.63;;
43150;SDS011;28755;51.478;5.702;2023-03-21T06:08:01;20.77;;;9.00;;
43150;SDS011;28755;51.478;5.702;2023-03-21T06:10:26;18.85;;;7.82;;
43150;SDS011;28755;51.478;5.702;2023-03-21T06:12:52;21.60;;;8.32;;
43150;SDS011;28755;51.478;5.702;2023-03-21T06:15:18;22.75;;;8.20;;
43150;SDS011;28755;51.478;5.702;2023-03-21T06:17:43;21.38;;;7.97;;
43150;SDS011;28755;51.478;5.702;2023-03-21T06:20:09;19.52;;;7.57;;
43150;SDS011;28755;51.478;5.702;2023-03-21T06:22:35;22.65;;;7.30;;
43150;SDS011;28755;51.478;5.702;2023-03-21T06:25:02;18.92;;;7.90;;
43150;SDS011;28755;51.478;5.702;2023-03-21T06:27:29;21.50;;;7.07;;
43150;SDS011;28755;51.478;5.702;2023-03-21T06:29:55;15.38;;;6.85;;
43150;SDS011;28755;51.478;5.702;2023-03-21T06:32:22;21.00;;;6.65;;
43150;SDS011;28755;51.478;5.702;2023-03-21T06:34:47;14.75;;;6.38;;
43150;SDS011;28755;51.478;5.702;2023-03-21T06:37:13;17.15;;;6.97;;
43150;SDS011;28755;51.478;5.702;2023-03-21T06:39:39;18.70;;;6.50;;
43150;SDS011;28755;51.478;5.702;2023-03-21T06:42:04;17.85;;;6.55;;
43150;SDS011;28755;51.478;5.702;2023-03-21T06:44:30;18.65;;;6.55;;
43150;SDS011;28755;51.478;5.702;2023-03-21T06:46:56;15.93;;;5.78;;
43150;SDS011;28755;51.478;5.702;2023-03-21T06:49:21;12.85;;;5.70;;
43150;SDS011;28755;51.478;5.702;2023-03-21T06:51:47;13.35;;;6.30;;
43150;SDS011;28755;51.478;5.702;2023-03-21T06:54:13;21.17;;;6.20;;
43150;SDS011;28755;51.478;5.702;2023-03-21T06:56:39;18.98;;;6.35;;
43150;SDS011;28755;51.478;5.702;2023-03-21T06:59:05;17.00;;;6.53;;
43150;SDS011;28755;51.478;5.702;2023-03-21T07:01:32;19.92;;;6.47;;
43150;SDS011;28755;51.478;5.702;2023-03-21T07:03:58;14.65;;;6.55;;
43150;SDS011;28755;51.478;5.702;2023-03-21T07:06:24;17.13;;;6.28;;
43150;SDS011;28755;51.478;5.702;2023-03-21T07:08:50;16.10;;;6.40;;
43150;SDS011;28755;51.478;5.702;2023-03-21T07:11:16;17.58;;;6.53;;
43150;SDS011;28755;51.478;5.702;2023-03-21T07:13:42;19.40;;;6.05;;
43150;SDS011;28755;51.478;5.702;2023-03-21T07:16:08;13.70;;;5.85;;
43150;SDS011;28755;51.478;5.702;2023-03-21T07:18:34;19.05;;;6.80;;
43150;SDS011;28755;51.478;5.702;2023-03-21T07:21:00;20.67;;;7.00;;
43150;SDS011;28755;51.478;5.702;2023-03-21T07:23:26;12.05;;;6.18;;
43150;SDS011;28755;51.478;5.702;2023-03-21T07:25:52;20.02;;;6.63;;
43150;SDS011;28755;51.478;5.702;2023-03-21T07:28:18;19.70;;;6.40;;
43150;SDS011;28755;51.478;5.702;2023-03-21T07:30:50;18.85;;;6.63;;
43150;SDS011;28755;51.478;5.702;2023-03-21T07:33:17;17.15;;;6.90;;
43150;SDS011;28755;51.478;5.702;2023-03-21T07:35:42;19.20;;;6.28;;
43150;SDS011;28755;51.478;5.702;2023-03-21T07:38:08;17.98;;;6.47;;
43150;SDS011;28755;51.478;5.702;2023-03-21T07:40:33;19.73;;;6.80;;
43150;SDS011;28755;51.478;5.702;2023-03-21T07:42:59;20.55;;;6.70;;
43150;SDS011;28755;51.478;5.702;2023-03-21T07:45:25;18.67;;;6.60;;
43150;SDS011;28755;51.478;5.702;2023-03-21T07:47:51;31.25;;;7.28;;
43150;SDS011;28755;51.478;5.702;2023-03-21T07:50:17;20.35;;;6.82;;
43150;SDS011;28755;51.478;5.702;2023-03-21T07:52:43;12.13;;;6.47;;
43150;SDS011;28755;51.478;5.702;2023-03-21T07:55:08;17.80;;;6.97;;
43150;SDS011;28755;51.478;5.702;2023-03-21T07:57:34;15.88;;;7.05;;
43150;SDS011;28755;51.478;5.702;2023-03-21T08:00:00;16.80;;;7.45;;
43150;SDS011;28755;51.478;5.702;2023-03-21T08:02:28;18.67;;;6.82;;
43150;SDS011;28755;51.478;5.702;2023-03-21T08:04:53;23.88;;;7.78;;
43150;SDS011;28755;51.478;5.702;2023-03-21T08:07:19;16.20;;;7.15;;
43150;SDS011;28755;51.478;5.702;2023-03-21T08:09:44;19.65;;;7.18;;
43150;SDS011;28755;51.478;5.702;2023-03-21T08:12:10;15.82;;;7.18;;
43150;SDS011;28755;51.478;5.702;2023-03-21T08:14:36;16.67;;;6.88;;
43150;SDS011;28755;51.478;5.702;2023-03-21T08:17:02;15.73;;;7.78;;
43150;SDS011;28755;51.478;5.702;2023-03-21T08:19:29;18.50;;;7.60;;
43150;SDS011;28755;51.478;5.702;2023-03-21T08:21:55;21.58;;;7.20;;
43150;SDS011;28755;51.478;5.702;2023-03-21T08:24:23;17.35;;;7.53;;
43150;SDS011;28755;51.478;5.702;2023-03-21T08:26:50;21.88;;;7.63;;
43150;SDS011;28755;51.478;5.702;2023-03-21T08:29:15;15.43;;;7.38;;
43150;SDS011;28755;51.478;5.702;2023-03-21T08:31:41;13.88;;;6.57;;
43150;SDS011;28755;51.478;5.702;2023-03-21T08:34:07;17.88;;;6.93;;
43150;SDS011;28755;51.478;5.702;2023-03-21T08:36:34;18.30;;;7.22;;
43150;SDS011;28755;51.478;5.702;2023-03-21T08:39:01;24.10;;;7.25;;
43150;SDS011;28755;51.478;5.702;2023-03-21T08:41:32;15.35;;;7.15;;
43150;SDS011;28755;51.478;5.702;2023-03-21T08:43:59;16.40;;;7.38;;
43150;SDS011;28755;51.478;5.702;2023-03-21T08:46:25;17.58;;;7.25;;
43150;SDS011;28755;51.478;5.702;2023-03-21T08:48:52;17.05;;;7.32;;
43150;SDS011;28755;51.478;5.702;2023-03-21T08:51:18;21.95;;;7.88;;
43150;SDS011;28755;51.478;5.702;2023-03-21T08:53:44;17.75;;;8.00;;
43150;SDS011;28755;51.478;5.702;2023-03-21T08:56:10;13.43;;;7.50;;
43150;SDS011;28755;51.478;5.702;2023-03-21T08:58:35;18.13;;;7.75;;
43150;SDS011;28755;51.478;5.702;2023-03-21T09:01:01;19.20;;;7.70;;
43150;SDS011;28755;51.478;5.702;2023-03-21T09:03:28;24.08;;;7.80;;
43150;SDS011;28755;51.478;5.702;2023-03-21T09:05:54;19.88;;;8.05;;
43150;SDS011;28755;51.478;5.702;2023-03-21T09:08:20;21.40;;;8.57;;
43150;SDS011;28755;51.478;5.702;2023-03-21T09:10:53;18.13;;;7.78;;
43150;SDS011;28755;51.478;5.702;2023-03-21T09:13:20;17.98;;;8.15;;
43150;SDS011;28755;51.478;5.702;2023-03-21T09:15:46;18.50;;;8.00;;
43150;SDS011;28755;51.478;5.702;2023-03-21T09:18:12;22.35;;;8.45;;
43150;SDS011;28755;51.478;5.702;2023-03-21T09:20:40;17.23;;;7.53;;
43150;SDS011;28755;51.478;5.702;2023-03-21T09:23:07;19.25;;;7.20;;
43150;SDS011;28755;51.478;5.702;2023-03-21T09:25:34;17.88;;;6.82;;
43150;SDS011;28755;51.478;5.702;2023-03-21T09:28:01;15.25;;;7.18;;
43150;SDS011;28755;51.478;5.702;2023-03-21T09:30:31;17.83;;;7.80;;
43150;SDS011;28755;51.478;5.702;2023-03-21T09:32:58;15.98;;;7.28;;
43150;SDS011;28755;51.478;5.702;2023-03-21T09:35:25;13.95;;;6.97;;
43150;SDS011;28755;51.478;5.702;2023-03-21T09:37:52;13.52;;;6.43;;
43150;SDS011;28755;51.478;5.702;2023-03-21T09:40:20;21.20;;;6.57;;
43150;SDS011;28755;51.478;5.702;2023-03-21T09:43:06;18.45;;;6.90;;
43150;SDS011;28755;51.478;5.702;2023-03-21T09:45:49;12.23;;;6.82;;
43150;SDS011;28755;51.478;5.702;2023-03-21T09:51:01;15.55;;;6.20;;
43150;SDS011;28755;51.478;5.702;2023-03-21T09:53:31;14.70;;;6.68;;
43150;SDS011;28755;51.478;5.702;2023-03-21T09:56:01;13.43;;;5.95;;
43150;SDS011;28755;51.478;5.702;2023-03-21T09:59:12;14.52;;;6.82;;
43150;SDS011;28755;51.478;5.702;2023-03-21T10:01:26;12.55;;;5.75;;
43150;SDS011;28755;51.478;5.702;2023-03-21T10:03:57;15.02;;;6.28;;
43150;SDS011;28755;51.478;5.702;2023-03-21T10:06:25;17.00;;;6.18;;
43150;SDS011;28755;51.478;5.702;2023-03-21T10:09:04;14.85;;;6.35;;
43150;SDS011;28755;51.478;5.702;2023-03-21T10:11:41;13.32;;;6.00;;
43150;SDS011;28755;51.478;5.702;2023-03-21T10:14:35;12.45;;;6.18;;
43150;SDS011;28755;51.478;5.702;2023-03-21T10:19:39;11.65;;;5.00;;
43150;SDS011;28755;51.478;5.702;2023-03-21T10:22:10;13.27;;;5.43;;
43150;SDS011;28755;51.478;5.702;2023-03-21T10:24:35;10.65;;;4.50;;
43150;SDS011;28755;51.478;5.702;2023-03-21T10:27:01;13.02;;;4.30;;
43150;SDS011;28755;51.478;5.702;2023-03-21T10:29:30;11.27;;;4.85;;
43150;SDS011;28755;51.478;5.702;2023-03-21T10:32:00;15.00;;;4.40;;
43150;SDS011;28755;51.478;5.702;2023-03-21T10:34:29;17.35;;;4.88;;
43150;SDS011;28755;51.478;5.702;2023-03-21T10:37:04;12.05;;;4.40;;
43150;SDS011;28755;51.478;5.702;2023-03-21T10:39:37;12.95;;;4.68;;
43150;SDS011;28755;51.478;5.702;2023-03-21T10:42:05;12.40;;;4.65;;
43150;SDS011;28755;51.478;5.702;2023-03-21T10:44:38;12.35;;;4.45;;
43150;SDS011;28755;51.478;5.702;2023-03-21T10:47:10;11.95;;;4.15;;
43150;SDS011;28755;51.478;5.702;2023-03-21T10:49:36;12.52;;;5.00;;
43150;SDS011;28755;51.478;5.702;2023-03-21T10:52:04;9.95;;;4.60;;
43150;SDS011;28755;51.478;5.702;2023-03-21T10:54:33;11.20;;;4.43;;
43150;SDS011;28755;51.478;5.702;2023-03-21T10:59:54;11.50;;;4.40;;
43150;SDS011;28755;51.478;5.702;2023-03-21T11:02:32;11.98;;;4.47;;
43150;SDS011;28755;51.478;5.702;2023-03-21T11:05:19;13.77;;;4.55;;
43150;SDS011;28755;51.478;5.702;2023-03-21T11:07:56;9.70;;;4.78;;
43150;SDS011;28755;51.478;5.702;2023-03-21T11:10:35;17.67;;;5.18;;
43150;SDS011;28755;51.478;5.702;2023-03-21T11:13:06;11.88;;;4.68;;
43150;SDS011;28755;51.478;5.702;2023-03-21T11:15:45;10.70;;;4.10;;
43150;SDS011;28755;51.478;5.702;2023-03-21T11:18:19;11.82;;;4.80;;
43150;SDS011;28755;51.478;5.702;2023-03-21T11:20:50;13.63;;;4.63;;
43150;SDS011;28755;51.478;5.702;2023-03-21T11:23:27;12.82;;;4.97;;
43150;SDS011;28755;51.478;5.702;2023-03-21T11:25:56;15.10;;;5.18;;
43150;SDS011;28755;51.478;5.702;2023-03-21T11:28:24;9.23;;;4.38;;
43150;SDS011;28755;51.478;5.702;2023-03-21T11:30:58;15.27;;;5.07;;
43150;SDS011;28755;51.478;5.702;2023-03-21T11:33:26;14.90;;;4.97;;
43150;SDS011;28755;51.478;5.702;2023-03-21T11:36:41;12.02;;;4.50;;
43150;SDS011;28755;51.478;5.702;2023-03-21T11:38:42;12.02;;;4.18;;
43150;SDS011;28755;51.478;5.702;2023-03-21T11:41:07;12.75;;;4.57;;
43150;SDS011;28755;51.478;5.702;2023-03-21T11:43:34;14.55;;;4.43;;
43150;SDS011;28755;51.478;5.702;2023-03-21T11:48:29;7.70;;;3.53;;
43150;SDS011;28755;51.478;5.702;2023-03-21T11:51:25;8.23;;;3.65;;
43150;SDS011;28755;51.478;5.702;2023-03-21T11:56:39;10.05;;;3.65;;
43150;SDS011;28755;51.478;5.702;2023-03-21T12:09:45;9.63;;;3.30;;
43150;SDS011;28755;51.478;5.702;2023-03-21T12:12:26;10.52;;;3.58;;
43150;SDS011;28755;51.478;5.702;2023-03-21T12:15:02;9.05;;;3.58;;
43150;SDS011;28755;51.478;5.702;2023-03-21T12:20:10;10.23;;;3.80;;
43150;SDS011;28755;51.478;5.702;2023-03-21T12:22:51;10.18;;;3.20;;
43150;SDS011;28755;51.478;5.702;2023-03-21T12:25:30;10.52;;;3.05;;
43150;SDS011;28755;51.478;5.702;2023-03-21T12:28:22;10.13;;;3.40;;
43150;SDS011;28755;51.478;5.702;2023-03-21T12:31:06;12.90;;;5.03;;
43150;SDS011;28755;51.478;5.702;2023-03-21T12:33:56;16.55;;;3.80;;
43150;SDS011;28755;51.478;5.702;2023-03-21T12:39:23;11.15;;;3.90;;
43150;SDS011;28755;51.478;5.702;2023-03-21T12:42:03;10.32;;;3.13;;
43150;SDS011;28755;51.478;5.702;2023-03-21T12:44:36;9.25;;;3.33;;
43150;SDS011;28755;51.478;5.702;2023-03-21T12:47:09;18.05;;;4.03;;
43150;SDS011;28755;51.478;5.702;2023-03-21T12:49:45;9.95;;;3.00;;
43150;SDS011;28755;51.478;5.702;2023-03-21T12:52:41;11.15;;;3.38;;
43150;SDS011;28755;51.478;5.702;2023-03-21T12:55:24;10.40;;;2.95;;
43150;SDS011;28755;51.478;5.702;2023-03-21T13:05:29;6.88;;;3.10;;
43150;SDS011;28755;51.478;5.702;2023-03-21T13:08:16;10.85;;;2.85;;
43150;SDS011;28755;51.478;5.702;2023-03-21T13:10:49;10.13;;;3.03;;
43150;SDS011;28755;51.478;5.702;2023-03-21T13:24:17;7.53;;;3.55;;
43150;SDS011;28755;51.478;5.702;2023-03-21T13:29:32;9.05;;;3.40;;
43150;SDS011;28755;51.478;5.702;2023-03-21T13:37:56;13.35;;;3.60;;
43150;SDS011;28755;51.478;5.702;2023-03-21T13:42:58;10.38;;;3.42;;
43150;SDS011;28755;51.478;5.702;2023-03-21T13:45:31;7.60;;;3.17;;
43150;SDS011;28755;51.478;5.702;2023-03-21T13:48:24;9.00;;;3.60;;
43150;SDS011;28755;51.478;5.702;2023-03-21T13:50:53;8.57;;;3.33;;
43150;SDS011;28755;51.478;5.702;2023-03-21T13:53:28;7.22;;;2.97;;
43150;SDS011;28755;51.478;5.702;2023-03-21T13:58:58;8.68;;;3.20;;
43150;SDS011;28755;51.478;5.702;2023-03-21T14:01:37;9.45;;;3.78;;
43150;SDS011;28755;51.478;5.702;2023-03-21T14:04:21;9.68;;;4.10;;
43150;SDS011;28755;51.478;5.702;2023-03-21T14:06:55;6.18;;;3.60;;
43150;SDS011;28755;51.478;5.702;2023-03-21T14:09:30;9.93;;;3.92;;
43150;SDS011;28755;51.478;5.702;2023-03-21T14:12:00;10.55;;;3.42;;
43150;SDS011;28755;51.478;5.702;2023-03-21T14:14:48;10.02;;;3.40;;
43150;SDS011;28755;51.478;5.702;2023-03-21T14:17:24;8.20;;;3.60;;
43150;SDS011;28755;51.478;5.702;2023-03-21T14:19:53;10.50;;;3.75;;
43150;SDS011;28755;51.478;5.702;2023-03-21T14:22:20;7.82;;;3.65;;
43150;SDS011;28755;51.478;5.702;2023-03-21T14:24:47;8.75;;;3.78;;
43150;SDS011;28755;51.478;5.702;2023-03-21T14:27:18;8.85;;;4.00;;
43150;SDS011;28755;51.478;5.702;2023-03-21T14:29:44;8.25;;;3.97;;
43150;SDS011;28755;51.478;5.702;2023-03-21T14:32:17;9.25;;;3.58;;
43150;SDS011;28755;51.478;5.702;2023-03-21T14:34:45;10.13;;;2.80;;
43150;SDS011;28755;51.478;5.702;2023-03-21T14:37:24;8.68;;;3.22;;
43150;SDS011;28755;51.478;5.702;2023-03-21T14:39:59;7.05;;;3.17;;
43150;SDS011;28755;51.478;5.702;2023-03-21T14:42:26;7.35;;;2.92;;
43150;SDS011;28755;51.478;5.702;2023-03-21T14:44:52;9.40;;;2.80;;
43150;SDS011;28755;51.478;5.702;2023-03-21T14:47:24;9.27;;;3.40;;
43150;SDS011;28755;51.478;5.702;2023-03-21T14:49:51;7.53;;;3.50;;
43150;SDS011;28755;51.478;5.702;2023-03-21T14:52:24;12.73;;;3.30;;
43150;SDS011;28755;51.478;5.702;2023-03-21T14:54:55;22.35;;;3.85;;
43150;SDS011;28755;51.478;5.702;2023-03-21T14:57:28;5.75;;;2.95;;
43150;SDS011;28755;51.478;5.702;2023-03-21T14:59:57;7.82;;;2.65;;
43150;SDS011;28755;51.478;5.702;2023-03-21T15:02:27;9.00;;;3.22;;
43150;SDS011;28755;51.478;5.702;2023-03-21T15:04:58;9.63;;;3.22;;
43150;SDS011;28755;51.478;5.702;2023-03-21T15:07:33;5.93;;;3.00;;
43150;SDS011;28755;51.478;5.702;2023-03-21T15:10:05;10.48;;;3.15;;
43150;SDS011;28755;51.478;5.702;2023-03-21T15:12:33;9.90;;;3.50;;
43150;SDS011;28755;51.478;5.702;2023-03-21T15:14:59;5.80;;;3.00;;
43150;SDS011;28755;51.478;5.702;2023-03-21T15:17:26;7.97;;;3.10;;
43150;SDS011;28755;51.478;5.702;2023-03-21T15:19:52;6.05;;;2.78;;
43150;SDS011;28755;51.478;5.702;2023-03-21T15:22:35;8.27;;;3.20;;
43150;SDS011;28755;51.478;5.702;2023-03-21T15:25:04;10.07;;;2.95;;
43150;SDS011;28755;51.478;5.702;2023-03-21T15:27:33;5.75;;;2.70;;
43150;SDS011;28755;51.478;5.702;2023-03-21T15:30:06;7.50;;;3.25;;
43150;SDS011;28755;51.478;5.702;2023-03-21T15:32:40;6.60;;;2.88;;
43150;SDS011;28755;51.478;5.702;2023-03-21T15:35:06;6.55;;;3.00;;
43150;SDS011;28755;51.478;5.702;2023-03-21T15:37:37;4.22;;;2.38;;
43150;SDS011;28755;51.478;5.702;2023-03-21T15:40:19;6.65;;;2.63;;
43150;SDS011;28755;51.478;5.702;2023-03-21T15:43:03;6.35;;;3.35;;
43150;SDS011;28755;51.478;5.702;2023-03-21T15:45:46;5.75;;;2.50;;
43150;SDS011;28755;51.478;5.702;2023-03-21T15:48:19;15.50;;;8.55;;
43150;SDS011;28755;51.478;5.702;2023-03-21T15:53:25;5.72;;;3.03;;
43150;SDS011;28755;51.478;5.702;2023-03-21T15:55:52;5.18;;;2.70;;
43150;SDS011;28755;51.478;5.702;2023-03-21T15:58:21;6.80;;;3.63;;
43150;SDS011;28755;51.478;5.702;2023-03-21T16:00:53;7.70;;;2.90;;
43150;SDS011;28755;51.478;5.702;2023-03-21T16:03:24;12.40;;;5.05;;
43150;SDS011;28755;51.478;5.702;2023-03-21T16:06:01;10.38;;;4.30;;
43150;SDS011;28755;51.478;5.702;2023-03-21T16:08:27;8.30;;;2.97;;
43150;SDS011;28755;51.478;5.702;2023-03-21T16:11:05;4.88;;;2.50;;
43150;SDS011;28755;51.478;5.702;2023-03-21T16:13:39;10.93;;;6.13;;
43150;SDS011;28755;51.478;5.702;2023-03-21T16:16:05;7.82;;;3.22;;
43150;SDS011;28755;51.478;5.702;2023-03-21T16:18:31;7.03;;;3.13;;